createdAt,value
2022-11-11T00:00:51.408Z,12.22
2022-11-11T00:03:36.710Z,12.19
2022-11-11T00:06:21.960Z,12.03
2022-11-11T00:09:07.273Z,12.05
2022-11-11T00:11:52.526Z,11.89
2022-11-11T00:14:37.833Z,11.88
2022-11-11T00:17:41.673Z,11.82
2022-11-11T00:20:45.732Z,11.82
2022-11-11T00:23:49.981Z,11.85
2022-11-11T00:26:40.384Z,11.91
2022-11-11T00:29:26.116Z,11.89
2022-11-11T00:32:23.383Z,11.88
2022-11-11T00:35:28.019Z,11.89
2022-11-11T00:38:34.565Z,11.65
2022-11-11T00:41:20.699Z,11.66
2022-11-11T00:44:05.825Z,11.63
2022-11-11T00:47:09.756Z,11.70
2022-11-11T00:50:13.892Z,11.68
2022-11-11T00:52:59.181Z,11.68
2022-11-11T00:55:44.459Z,11.70
2022-11-11T00:58:29.855Z,11.67
2022-11-11T01:01:15.521Z,11.70
2022-11-11T01:04:00.992Z,11.69
2022-11-11T01:06:46.152Z,11.69
2022-11-11T01:09:31.914Z,11.60
2022-11-11T01:12:17.271Z,11.58
2022-11-11T01:15:02.670Z,11.48
2022-11-11T01:17:48.018Z,11.47
2022-11-11T01:20:33.325Z,11.50
2022-11-11T01:23:19.060Z,11.41
2022-11-11T01:26:13.984Z,11.42
2022-11-11T01:28:59.518Z,11.38
2022-11-11T01:31:45.065Z,11.44
2022-11-11T01:34:30.575Z,11.52
2022-11-11T01:37:15.757Z,11.46
2022-11-11T01:40:01.192Z,11.50
2022-11-11T01:42:51.027Z,11.55
2022-11-11T01:45:58.127Z,11.42
2022-11-11T01:49:14.729Z,11.43
2022-11-11T01:52:03.082Z,11.43
2022-11-11T01:55:09.815Z,11.41
2022-11-11T01:58:02.710Z,11.39
2022-11-11T02:00:48.010Z,11.51
2022-11-11T02:03:36.274Z,11.57
2022-11-11T02:06:22.168Z,11.59
2022-11-11T02:09:08.311Z,11.61
2022-11-11T02:12:13.117Z,11.59
2022-11-11T02:15:00.415Z,11.64
2022-11-11T02:17:47.097Z,11.60
2022-11-11T02:20:36.618Z,11.67
2022-11-11T02:23:35.969Z,11.67
2022-11-11T02:26:22.587Z,11.69
2022-11-11T02:29:15.201Z,11.66
2022-11-11T02:32:00.838Z,11.68
2022-11-11T02:34:46.714Z,11.66
2022-11-11T02:37:32.261Z,11.64
2022-11-11T02:40:31.245Z,11.61
2022-11-11T02:43:18.820Z,11.58
2022-11-11T02:46:06.405Z,11.56
2022-11-11T02:48:51.887Z,11.53
2022-11-11T02:51:37.177Z,11.45
2022-11-11T02:54:22.855Z,11.45
2022-11-11T02:57:08.437Z,11.38
2022-11-11T02:59:54.620Z,11.33
2022-11-11T03:02:40.005Z,11.34
2022-11-11T03:05:25.762Z,11.34
2022-11-11T03:08:11.195Z,11.33
2022-11-11T03:10:56.406Z,11.32
2022-11-11T03:13:41.588Z,11.30
2022-11-11T03:16:46.033Z,11.28
2022-11-11T03:19:31.058Z,11.25
2022-11-11T03:25:40.149Z,11.22
2022-11-11T03:28:25.939Z,11.01
2022-11-11T03:31:11.379Z,11.10
2022-11-11T03:33:56.589Z,11.15
2022-11-11T03:37:00.701Z,11.17
2022-11-11T03:39:46.260Z,11.13
2022-11-11T03:42:31.569Z,11.17
2022-11-11T03:45:16.939Z,11.20
2022-11-11T03:48:02.374Z,11.16
2022-11-11T03:50:48.561Z,11.19
2022-11-11T03:53:34.131Z,11.28
2022-11-11T03:56:19.377Z,11.27
2022-11-11T03:59:04.680Z,11.16
2022-11-11T04:02:08.743Z,11.18
2022-11-11T04:05:12.884Z,11.03
2022-11-11T04:08:17.034Z,11.13
2022-11-11T04:11:07.668Z,11.18
2022-11-11T04:14:12.773Z,11.18
2022-11-11T04:16:58.329Z,11.11
2022-11-11T04:20:01.916Z,11.11
2022-11-11T04:22:48.641Z,11.05
2022-11-11T04:25:49.178Z,10.94
2022-11-11T04:28:53.318Z,10.94
2022-11-11T04:31:58.363Z,11.04
2022-11-11T04:34:46.084Z,11.09
2022-11-11T04:37:33.189Z,11.09
2022-11-11T04:40:37.507Z,11.14
2022-11-11T04:43:22.772Z,11.08
2022-11-11T04:46:08.359Z,11.11
2022-11-11T04:48:53.499Z,11.20
2022-11-11T04:51:57.440Z,11.18
2022-11-11T04:55:01.607Z,11.25
2022-11-11T04:57:48.243Z,11.07
2022-11-11T05:00:34.276Z,11.11
2022-11-11T05:03:22.189Z,11.19
2022-11-11T05:06:26.465Z,11.22
2022-11-11T05:09:11.930Z,11.04
2022-11-11T05:11:57.156Z,11.17
2022-11-11T05:15:00.992Z,11.09
2022-11-11T05:18:18.413Z,11.20
2022-11-11T05:21:22.263Z,11.08
2022-11-11T05:24:26.446Z,11.17
2022-11-11T05:27:12.013Z,11.27
2022-11-11T05:29:57.517Z,11.32
2022-11-11T05:32:43.271Z,11.34
2022-11-11T05:35:30.010Z,11.23
2022-11-11T05:38:21.219Z,11.30
2022-11-11T05:41:08.078Z,11.21
2022-11-11T05:43:53.207Z,11.25
2022-11-11T05:46:38.652Z,11.33
2022-11-11T05:49:25.262Z,11.38
2022-11-11T05:52:16.572Z,11.29
2022-11-11T05:55:01.954Z,11.33
2022-11-11T05:57:47.193Z,11.35
2022-11-11T06:00:32.331Z,11.29
2022-11-11T06:03:17.658Z,11.30
2022-11-11T06:06:03.201Z,11.30
2022-11-11T06:08:50.259Z,11.24
2022-11-11T06:11:35.812Z,11.17
2022-11-11T06:14:21.597Z,11.26
2022-11-11T06:17:07.080Z,11.29
2022-11-11T06:19:53.629Z,11.19
2022-11-11T06:22:57.171Z,11.25
2022-11-11T06:26:01.392Z,11.23
2022-11-11T06:28:52.103Z,10.99
2022-11-11T06:31:37.636Z,10.97
2022-11-11T06:34:22.878Z,11.11
2022-11-11T06:37:08.458Z,11.20
2022-11-11T06:39:53.681Z,11.23
2022-11-11T06:42:38.945Z,11.24
2022-11-11T06:45:25.137Z,11.18
2022-11-11T06:48:12.465Z,11.17
2022-11-11T06:51:03.782Z,11.04
2022-11-11T06:53:49.754Z,10.99
2022-11-11T06:56:35.282Z,11.09
2022-11-11T06:59:20.577Z,11.07
2022-11-11T07:02:05.686Z,11.19
2022-11-11T07:04:50.851Z,11.27
2022-11-11T07:07:36.255Z,11.28
2022-11-11T07:10:21.702Z,11.29
2022-11-11T07:13:07.760Z,11.28
2022-11-11T07:15:53.380Z,11.33
2022-11-11T07:18:38.501Z,11.35
2022-11-11T07:21:23.908Z,11.33
2022-11-11T07:24:09.210Z,11.37
2022-11-11T07:26:54.547Z,11.33
2022-11-11T07:29:39.871Z,11.42
2022-11-11T07:32:25.318Z,11.39
2022-11-11T07:35:10.540Z,11.43
2022-11-11T07:37:55.844Z,11.39
2022-11-11T07:40:41.231Z,11.32
2022-11-11T07:43:26.681Z,11.39
2022-11-11T07:46:11.982Z,11.27
2022-11-11T07:48:57.544Z,11.38
2022-11-11T07:51:42.726Z,11.41
2022-11-11T07:54:27.940Z,11.46
2022-11-11T07:57:13.224Z,11.52
2022-11-11T07:59:58.570Z,11.66
2022-11-11T08:02:48.403Z,11.72
2022-11-11T08:05:33.576Z,11.39
2022-11-11T08:08:20.920Z,11.49
2022-11-11T08:11:06.599Z,11.62
2022-11-11T08:13:52.289Z,11.71
2022-11-11T08:16:37.686Z,11.75
2022-11-11T08:19:23.001Z,11.85
2022-11-11T08:22:08.348Z,11.87
2022-11-11T08:25:03.511Z,11.99
2022-11-11T08:27:50.018Z,11.92
2022-11-11T08:30:35.670Z,11.84
2022-11-11T08:33:36.259Z,11.90
2022-11-11T08:36:23.753Z,12.00
2022-11-11T08:39:09.414Z,12.10
2022-11-11T08:41:54.733Z,11.92
2022-11-11T08:44:40.106Z,12.08
2022-11-11T08:47:25.413Z,12.08
2022-11-11T08:50:11.269Z,12.25
2022-11-11T08:52:57.232Z,12.38
2022-11-11T08:55:42.513Z,12.15
2022-11-11T08:58:27.841Z,12.19
2022-11-11T09:01:14.040Z,12.34
2022-11-11T09:04:06.834Z,12.36
2022-11-11T09:07:02.311Z,12.33
2022-11-11T09:09:47.549Z,12.49
2022-11-11T09:12:33.260Z,12.55
2022-11-11T09:15:18.509Z,12.71
2022-11-11T09:18:03.984Z,12.61
2022-11-11T09:20:49.182Z,12.60
2022-11-11T09:23:34.533Z,12.70
2022-11-11T09:26:19.988Z,12.72
2022-11-11T09:29:05.323Z,12.56
2022-11-11T09:31:50.764Z,12.40
2022-11-11T09:34:36.166Z,12.53
2022-11-11T09:37:22.226Z,12.74
2022-11-11T09:40:16.689Z,12.64
2022-11-11T09:43:14.152Z,12.63
2022-11-11T09:46:17.449Z,12.48
2022-11-11T09:49:21.195Z,12.69
2022-11-11T09:52:32.499Z,12.73
2022-11-11T09:55:22.616Z,12.83
2022-11-11T09:58:19.978Z,12.79
2022-11-11T10:01:12.731Z,13.00
2022-11-11T10:04:09.040Z,12.77
2022-11-11T10:06:59.442Z,12.89
2022-11-11T10:09:52.519Z,13.11
2022-11-11T10:12:43.859Z,13.12
2022-11-11T10:15:36.254Z,13.33
2022-11-11T10:18:39.731Z,13.49
2022-11-11T10:22:05.744Z,13.42
2022-11-11T10:24:51.226Z,13.44
2022-11-11T10:27:37.326Z,13.48
2022-11-11T10:30:33.542Z,13.50
2022-11-11T10:33:56.397Z,13.47
2022-11-11T10:36:48.443Z,13.60
2022-11-11T10:39:48.573Z,13.80
2022-11-11T10:42:33.905Z,13.72
2022-11-11T10:45:54.543Z,13.89
2022-11-11T10:48:56.187Z,13.89
2022-11-11T10:51:50.155Z,14.02
2022-11-11T10:54:44.411Z,14.20
2022-11-11T10:57:37.520Z,14.25
2022-11-11T11:00:22.972Z,14.37
2022-11-11T11:03:24.112Z,14.26
2022-11-11T11:06:17.037Z,13.79
2022-11-11T11:09:12.341Z,13.64
2022-11-11T11:12:07.313Z,13.79
2022-11-11T11:14:55.428Z,13.93
2022-11-11T11:17:55.269Z,14.08
2022-11-11T11:21:01.266Z,14.20
2022-11-11T11:23:47.218Z,14.19
2022-11-11T11:26:47.467Z,14.00
2022-11-11T11:29:38.813Z,13.95
2022-11-11T11:32:28.834Z,14.12
2022-11-11T11:35:31.190Z,14.21
2022-11-11T11:38:16.642Z,14.29
2022-11-11T11:41:01.920Z,14.32
2022-11-11T11:43:49.766Z,14.38
2022-11-11T11:46:39.753Z,14.36
2022-11-11T11:49:40.532Z,14.32
2022-11-11T11:52:47.902Z,14.36
2022-11-11T11:55:37.802Z,14.39
2022-11-11T11:58:42.430Z,14.45
2022-11-11T12:02:06.539Z,14.60
2022-11-11T12:05:00.669Z,14.45
2022-11-11T12:08:27.810Z,14.39
2022-11-11T12:11:21.675Z,14.51
2022-11-11T12:14:24.958Z,14.47
2022-11-11T12:17:19.636Z,14.63
2022-11-11T12:20:16.874Z,14.71
2022-11-11T12:23:23.489Z,14.68
2022-11-11T12:26:37.729Z,14.69
2022-11-11T12:29:35.388Z,14.71
2022-11-11T12:33:05.118Z,14.74
2022-11-11T12:35:56.311Z,14.86
2022-11-11T12:38:58.923Z,14.78
2022-11-11T12:42:21.925Z,14.71
2022-11-11T12:45:13.555Z,14.84
2022-11-11T12:48:31.197Z,15.00
2022-11-11T12:51:34.939Z,14.86
2022-11-11T12:54:42.319Z,14.97
2022-11-11T12:57:42.613Z,15.11
2022-11-11T13:00:28.102Z,15.04
2022-11-11T13:03:28.702Z,15.12
2022-11-11T13:06:39.138Z,14.99
2022-11-11T13:09:24.543Z,15.08
2022-11-11T13:12:18.878Z,15.03
2022-11-11T13:15:23.702Z,15.20
2022-11-11T13:18:16.144Z,15.22
2022-11-11T13:21:04.940Z,15.20
2022-11-11T13:23:50.450Z,15.13
2022-11-11T13:26:39.833Z,15.02
2022-11-11T13:30:10.215Z,15.16
2022-11-11T13:33:01.385Z,15.17
2022-11-11T13:35:52.581Z,15.19
2022-11-11T13:38:44.242Z,15.17
2022-11-11T13:41:32.843Z,15.23
2022-11-11T13:44:24.146Z,15.22
2022-11-11T13:47:13.389Z,15.16
2022-11-11T13:50:08.381Z,15.15
2022-11-11T13:53:30.238Z,15.16
2022-11-11T13:56:45.255Z,15.21
2022-11-11T13:59:42.444Z,15.18
2022-11-11T14:02:35.513Z,15.24
2022-11-11T14:05:23.568Z,15.24
2022-11-11T14:08:10.309Z,15.23
2022-11-11T14:10:58.808Z,15.19
2022-11-11T14:13:44.434Z,15.17
2022-11-11T14:16:35.923Z,15.18
2022-11-11T14:19:21.412Z,15.19
2022-11-11T14:22:37.053Z,15.16
2022-11-11T14:25:25.890Z,15.00
2022-11-11T14:28:30.197Z,15.15
2022-11-11T14:31:18.336Z,15.17
2022-11-11T14:34:33.119Z,15.16
2022-11-11T14:37:24.629Z,14.99
2022-11-11T14:40:23.454Z,14.82
2022-11-11T14:43:41.010Z,14.70
2022-11-11T14:46:26.204Z,14.58
2022-11-11T14:49:11.485Z,14.67
2022-11-11T14:52:01.741Z,14.46
2022-11-11T14:54:53.647Z,14.54
2022-11-11T14:57:49.563Z,14.50
2022-11-11T15:00:50.872Z,14.57
2022-11-11T15:03:39.978Z,14.63
2022-11-11T15:06:31.116Z,14.47
2022-11-11T15:09:50.044Z,14.45
2022-11-11T15:12:57.421Z,14.42
2022-11-11T15:15:53.413Z,14.34
2022-11-11T15:19:06.898Z,14.42
2022-11-11T15:22:03.466Z,14.32
2022-11-11T15:25:07.415Z,14.21
2022-11-11T15:28:08.628Z,14.17
2022-11-11T15:31:06.431Z,14.07
2022-11-11T15:34:38.127Z,14.08
2022-11-11T15:37:26.158Z,13.97
2022-11-11T15:40:20.395Z,13.99
2022-11-11T15:43:06.250Z,13.90
2022-11-11T15:46:00.484Z,13.83
2022-11-11T15:48:46.511Z,13.75
2022-11-11T15:51:35.870Z,13.70
2022-11-11T15:54:26.509Z,13.64
2022-11-11T15:57:32.271Z,13.55
2022-11-11T16:00:23.785Z,13.53
2022-11-11T16:03:21.201Z,13.48
2022-11-11T16:06:11.742Z,13.41
2022-11-11T16:09:00.412Z,13.29
2022-11-11T16:11:45.922Z,13.26
2022-11-11T16:14:37.509Z,13.23
2022-11-11T16:17:26.060Z,13.07
2022-11-11T16:20:16.381Z,13.12
2022-11-11T16:23:03.033Z,13.00
2022-11-11T16:25:53.421Z,12.99
2022-11-11T16:28:43.160Z,12.86
2022-11-11T16:31:38.265Z,12.83
2022-11-11T16:34:29.559Z,12.71
2022-11-11T16:37:17.430Z,12.70
2022-11-11T16:40:30.987Z,12.67
2022-11-11T16:43:21.876Z,12.56
2022-11-11T16:46:10.147Z,12.52
2022-11-11T16:48:55.579Z,12.44
2022-11-11T16:51:44.320Z,12.31
2022-11-11T16:54:32.606Z,12.32
2022-11-11T16:57:26.666Z,12.26
2022-11-11T17:00:18.457Z,12.11
2022-11-11T17:03:25.982Z,12.05
2022-11-11T17:06:12.006Z,12.04
2022-11-11T17:08:57.446Z,12.00
2022-11-11T17:11:45.854Z,11.96
2022-11-11T17:14:34.264Z,11.91
2022-11-11T17:17:21.672Z,11.85
2022-11-11T17:20:16.552Z,11.75
2022-11-11T17:23:06.463Z,11.69
2022-11-11T17:25:56.836Z,11.72
2022-11-11T17:28:42.207Z,11.68
2022-11-11T17:31:27.505Z,11.61
2022-11-11T17:34:12.891Z,11.56
2022-11-11T17:36:58.570Z,11.54
2022-11-11T17:39:45.251Z,11.55
2022-11-11T17:42:30.965Z,11.52
2022-11-11T17:45:16.833Z,11.49
2022-11-11T17:48:03.334Z,11.44
2022-11-11T17:50:48.600Z,11.41
2022-11-11T17:53:37.019Z,11.31
2022-11-11T17:56:22.406Z,11.26
2022-11-11T17:59:08.578Z,11.23
2022-11-11T18:01:54.307Z,11.23
2022-11-11T18:04:40.635Z,11.20
2022-11-11T18:07:25.969Z,11.21
2022-11-11T18:10:12.559Z,11.16
2022-11-11T18:12:58.504Z,11.05
2022-11-11T18:15:44.161Z,11.09
2022-11-11T18:18:30.655Z,11.05
2022-11-11T18:21:16.423Z,11.04
2022-11-11T18:24:04.329Z,11.05
2022-11-11T18:26:49.774Z,10.96
2022-11-11T18:29:36.030Z,10.93
2022-11-11T18:32:21.805Z,10.93
2022-11-11T18:35:08.442Z,10.89
2022-11-11T18:37:54.235Z,10.81
2022-11-11T18:40:40.005Z,10.73
2022-11-11T18:43:25.868Z,10.69
2022-11-11T18:46:14.095Z,10.72
2022-11-11T18:49:01.701Z,10.66
2022-11-11T18:51:47.311Z,10.64
2022-11-11T18:54:33.729Z,10.57
2022-11-11T18:57:19.413Z,10.48
2022-11-11T19:00:07.848Z,10.50
2022-11-11T19:02:53.276Z,10.47
2022-11-11T19:05:38.649Z,10.44
2022-11-11T19:08:24.189Z,10.38
2022-11-11T19:11:09.908Z,10.35
2022-11-11T19:13:56.107Z,10.27
2022-11-11T19:16:42.216Z,10.30
2022-11-11T19:19:27.372Z,10.26
2022-11-11T19:22:12.542Z,10.14
2022-11-11T19:24:58.000Z,10.13
2022-11-11T19:27:43.285Z,10.10
2022-11-11T19:30:28.823Z,10.02
2022-11-11T19:33:15.056Z,10.06
2022-11-11T19:36:02.482Z,10.07
2022-11-11T19:38:48.652Z,9.94
2022-11-11T19:41:34.210Z,9.96
2022-11-11T19:44:19.502Z,9.98
2022-11-11T19:47:05.440Z,9.90
2022-11-11T19:49:50.776Z,9.88
2022-11-11T19:52:36.221Z,9.89
2022-11-11T19:55:21.470Z,9.73
2022-11-11T19:58:06.808Z,9.68
2022-11-11T20:00:52.615Z,9.76
2022-11-11T20:03:38.469Z,9.71
2022-11-11T20:06:28.926Z,9.71
2022-11-11T20:09:15.178Z,9.62
2022-11-11T20:12:00.606Z,9.55
2022-11-11T20:14:46.147Z,9.59
2022-11-11T20:17:31.388Z,9.63
2022-11-11T20:20:16.932Z,9.52
2022-11-11T20:23:06.492Z,9.49
2022-11-11T20:25:53.016Z,9.45
2022-11-11T20:28:39.140Z,9.46
2022-11-11T20:31:25.412Z,9.39
2022-11-11T20:34:10.913Z,9.27
2022-11-11T20:36:56.458Z,9.38
2022-11-11T20:39:41.669Z,9.34
2022-11-11T20:42:27.012Z,9.24
2022-11-11T20:45:12.800Z,9.19
2022-11-11T20:47:58.545Z,9.14
2022-11-11T20:50:44.178Z,9.22
2022-11-11T20:53:30.336Z,9.24
2022-11-11T20:56:22.215Z,9.17
2022-11-11T20:59:09.354Z,9.14
2022-11-11T21:01:55.451Z,9.03
2022-11-11T21:04:40.663Z,9.05
2022-11-11T21:07:26.166Z,8.99
2022-11-11T21:10:11.619Z,9.00
2022-11-11T21:12:56.911Z,9.02
2022-11-11T21:15:42.309Z,8.98
2022-11-11T21:18:27.990Z,8.91
2022-11-11T21:21:22.523Z,8.88
2022-11-11T21:24:08.657Z,8.77
2022-11-11T21:26:54.245Z,8.70
2022-11-11T21:29:39.690Z,8.72
2022-11-11T21:32:25.822Z,8.73
2022-11-11T21:35:11.368Z,8.72
2022-11-11T21:37:56.774Z,8.65
2022-11-11T21:40:42.078Z,8.65
2022-11-11T21:43:27.179Z,8.62
2022-11-11T21:46:18.271Z,8.65
2022-11-11T21:49:04.637Z,8.62
2022-11-11T21:51:50.946Z,8.57
2022-11-11T21:54:36.371Z,8.48
2022-11-11T21:57:21.640Z,8.52
2022-11-11T22:00:07.514Z,8.56
2022-11-11T22:02:53.024Z,8.47
2022-11-11T22:05:38.538Z,8.38
2022-11-11T22:08:24.119Z,8.38
2022-11-11T22:11:15.480Z,8.37
2022-11-11T22:14:02.278Z,8.38
2022-11-11T22:16:47.925Z,8.41
2022-11-11T22:19:33.488Z,8.32
2022-11-11T22:22:18.737Z,8.34
2022-11-11T22:25:04.165Z,8.31
2022-11-11T22:27:49.386Z,8.33
2022-11-11T22:30:34.788Z,8.30
2022-11-11T22:33:20.345Z,8.25
2022-11-11T22:36:12.921Z,8.26
2022-11-11T22:38:59.670Z,8.26
2022-11-11T22:41:45.004Z,8.15
2022-11-11T22:44:30.908Z,8.06
2022-11-11T22:47:16.186Z,8.11
2022-11-11T22:50:01.563Z,8.08
2022-11-11T22:52:50.297Z,8.07
2022-11-11T22:55:35.379Z,8.09
2022-11-11T22:58:20.794Z,8.05
2022-11-11T23:01:09.308Z,8.08
2022-11-11T23:03:55.919Z,8.00
2022-11-11T23:06:42.434Z,8.02
2022-11-11T23:09:28.234Z,8.00
2022-11-11T23:12:13.400Z,7.95
2022-11-11T23:14:58.527Z,8.06
2022-11-11T23:17:44.080Z,8.04
2022-11-11T23:20:29.661Z,7.99
2022-11-11T23:23:15.289Z,7.94
2022-11-11T23:26:06.015Z,7.85
2022-11-11T23:28:51.714Z,7.79
2022-11-11T23:31:37.119Z,7.85
2022-11-11T23:34:22.488Z,7.77
2022-11-11T23:37:08.282Z,7.73
2022-11-11T23:39:53.602Z,7.74
2022-11-11T23:42:38.904Z,7.66
2022-11-11T23:45:26.945Z,7.73
2022-11-11T23:48:12.202Z,7.72
2022-11-11T23:50:57.774Z,7.70
2022-11-11T23:53:43.389Z,7.72
2022-11-11T23:56:28.576Z,7.68
2022-11-11T23:59:13.859Z,7.65
